Time;durP1;ratioP1;P1;durP2;ratioP2;P2;SDS_P1;SDS_P2;PMS_P1;PMS_P2;Temp;Humidity;BMP_temperature;BMP_pressure;BME280_temperature;BME280_humidity;BME280_pressure;Samples;Min_cycle;Max_cycle;Signal;HPM_P1;HPM_P2
2021/09/04 00:01:26;;;;;;;10.07;5.50;;;12.90;99.90;;;13.99;100.00;98304.31;5063978;28;20549;-81
2021/09/04 00:03:55;;;;;;;9.60;5.00;;;12.70;99.90;;;13.95;100.00;98304.94;5063497;28;20475;-81
2021/09/04 00:06:23;;;;;;;7.23;5.30;;;12.60;99.90;;;13.90;100.00;98312.59;5068335;28;20522;-81
2021/09/04 00:08:52;;;;;;;10.00;5.67;;;12.50;99.90;;;13.97;100.00;98303.72;5056388;28;20509;-81
2021/09/04 00:11:21;;;;;;;8.73;5.10;;;12.70;99.90;;;13.86;100.00;98306.13;5056752;28;20911;-81
2021/09/04 00:13:50;;;;;;;6.90;4.30;;;12.50;99.90;;;13.90;100.00;98307.34;5067469;28;20513;-81
2021/09/04 00:16:19;;;;;;;8.43;5.13;;;12.60;99.90;;;13.87;100.00;98305.94;5062079;28;20514;-81
2021/09/04 00:18:48;;;;;;;5.70;4.10;;;12.60;99.90;;;13.77;100.00;98312.59;5065630;28;20476;-81
2021/09/04 00:21:16;;;;;;;10.40;5.17;;;12.50;99.90;;;13.72;100.00;98304.50;5059789;28;20500;-81
2021/09/04 00:23:44;;;;;;;9.23;5.27;;;12.40;99.90;;;13.81;100.00;98308.56;5055139;28;20499;-81
2021/09/04 00:26:13;;;;;;;9.33;4.57;;;12.60;99.90;;;13.68;100.00;98308.53;5063751;28;20459;-81
2021/09/04 00:28:42;;;;;;;9.70;5.60;;;12.40;99.90;;;13.63;100.00;98310.97;5063905;28;20510;-81
2021/09/04 00:31:12;;;;;;;8.40;5.00;;;12.30;99.90;;;13.64;100.00;98299.44;5064588;28;20879;-81
2021/09/04 00:33:41;;;;;;;8.33;5.10;;;12.30;99.90;;;13.67;100.00;98294.59;5060987;28;20457;-81
2021/09/04 00:36:09;;;;;;;8.87;5.37;;;12.40;99.90;;;13.63;100.00;98293.38;5057604;28;20459;-81
2021/09/04 00:38:38;;;;;;;8.93;5.10;;;12.30;99.90;;;13.55;100.00;98283.84;5062206;28;20586;-81
2021/09/04 00:41:06;;;;;;;8.30;5.53;;;12.20;99.90;;;13.49;100.00;98278.59;5064324;28;20523;-81
2021/09/04 00:43:35;;;;;;;8.53;4.50;;;12.10;99.90;;;13.54;100.00;98281.41;5055758;28;20489;-81
2021/09/04 00:46:08;;;;;;;7.20;5.30;;;12.20;99.90;;;13.49;100.00;98279.41;5058049;28;20588;-82
2021/09/04 00:48:40;;;;;;;9.10;4.90;;;12.20;99.90;;;13.47;100.00;98281.41;5058371;28;20583;-81
2021/09/04 00:51:17;;;;;;;8.47;5.13;;;12.20;99.90;;;13.48;100.00;98284.84;5065076;28;20524;-81
2021/09/04 00:53:45;;;;;;;8.73;4.60;;;12.20;99.90;;;13.32;100.00;98283.41;5061593;28;20875;-81
2021/09/04 00:56:15;;;;;;;11.00;5.17;;;12.10;99.90;;;13.37;100.00;98282.78;5061820;28;20560;-81
2021/09/04 00:58:44;;;;;;;10.40;5.50;;;12.10;99.90;;;13.42;100.00;98278.59;5059293;28;20472;-81
2021/09/04 01:01:14;;;;;;;9.10;4.97;;;12.20;99.90;;;13.45;100.00;98282.63;5063794;28;20537;-81
2021/09/04 01:03:44;;;;;;;9.03;5.53;;;12.20;99.90;;;13.44;100.00;98289.69;5064501;28;20799;-81
2021/09/04 01:06:15;;;;;;;7.50;5.50;;;12.30;99.90;;;13.40;100.00;98285.84;5061190;28;20457;-81
2021/09/04 01:08:44;;;;;;;7.20;4.67;;;12.20;99.90;;;13.36;100.00;98278.56;5071117;28;20497;-81
2021/09/04 01:11:14;;;;;;;13.00;5.20;;;12.10;99.90;;;13.32;100.00;98286.03;5062222;28;20837;-81
2021/09/04 01:13:44;;;;;;;8.50;5.13;;;12.00;99.90;;;13.35;100.00;98288.25;5064577;28;20464;-81
2021/09/04 01:16:13;;;;;;;10.83;5.13;;;12.00;99.90;;;13.32;100.00;98277.34;5066573;28;20464;-81
2021/09/04 01:18:43;;;;;;;10.10;5.97;;;12.00;99.90;;;13.20;100.00;98287.59;5064907;28;20510;-81
2021/09/04 01:21:12;;;;;;;7.50;5.43;;;11.90;99.90;;;13.30;100.00;98282.78;5065736;28;20473;-81
2021/09/04 01:23:40;;;;;;;7.60;5.00;;;12.10;99.90;;;13.19;100.00;98280.72;5064629;28;20460;-81
2021/09/04 01:26:11;;;;;;;7.53;5.30;;;11.90;99.90;;;13.13;100.00;98273.66;5073451;28;20472;-82
2021/09/04 01:28:40;;;;;;;17.73;5.50;;;11.80;99.90;;;13.17;100.00;98264.38;5069437;28;21006;-81
2021/09/04 01:31:09;;;;;;;9.80;4.73;;;11.80;99.90;;;13.23;100.00;98274.06;5063110;28;20500;-81
2021/09/04 01:33:44;;;;;;;10.00;5.40;;;12.00;99.90;;;13.18;100.00;98279.13;5071283;28;20471;-81
2021/09/04 01:36:13;;;;;;;9.50;6.00;;;11.90;99.90;;;13.13;100.00;98272.84;5064320;28;20521;-81
2021/09/04 01:38:41;;;;;;;6.80;4.90;;;11.80;99.90;;;13.16;100.00;98275.88;5060503;28;20472;-81
2021/09/04 01:41:11;;;;;;;6.33;4.60;;;11.90;99.90;;;13.11;100.00;98280.94;5060410;28;20509;-81
2021/09/04 01:43:40;;;;;;;6.90;5.23;;;11.90;99.90;;;13.06;100.00;98278.03;5063510;28;20468;-81
2021/09/04 01:46:08;;;;;;;6.90;4.93;;;11.80;99.90;;;13.08;100.00;98278.66;5068016;28;20577;-81
2021/09/04 01:48:37;;;;;;;8.57;5.23;;;11.80;99.90;;;13.11;100.00;98270.41;5067348;28;20455;-81
2021/09/04 01:51:06;;;;;;;9.20;5.73;;;11.80;99.90;;;13.17;100.00;98267.00;5060867;28;20496;-81
2021/09/04 01:53:34;;;;;;;7.77;4.50;;;11.90;99.90;;;13.03;100.00;98267.94;5062259;28;21023;-81
2021/09/04 01:56:03;;;;;;;7.40;5.10;;;11.70;99.90;;;13.03;100.00;98263.50;5062733;28;20550;-81
2021/09/04 01:58:33;;;;;;;9.90;5.73;;;11.80;99.90;;;13.01;100.00;98264.72;5067405;28;20506;-81
2021/09/04 02:01:02;;;;;;;6.87;4.63;;;11.70;99.90;;;12.95;100.00;98266.28;5067128;28;20463;-81
2021/09/04 02:03:30;;;;;;;7.77;5.10;;;11.60;99.90;;;12.92;100.00;98265.88;5069951;28;20460;-81
2021/09/04 02:05:59;;;;;;;7.60;4.27;;;11.60;99.90;;;12.84;100.00;98268.69;5059777;28;20457;-81
2021/09/04 02:08:28;;;;;;;10.73;4.70;;;11.50;99.90;;;12.82;100.00;98268.88;5058856;28;20502;-81
2021/09/04 02:10:56;;;;;;;8.17;5.27;;;11.50;99.90;;;12.73;100.00;98266.59;5057386;28;20481;-81
2021/09/04 02:13:25;;;;;;;10.30;5.57;;;11.40;99.90;;;12.63;100.00;98266.16;5070238;28;20441;-81
2021/09/04 02:15:56;;;;;;;6.83;4.57;;;11.30;99.90;;;12.67;100.00;98256.91;5064904;28;20456;-81
2021/09/04 02:18:25;;;;;;;6.70;5.10;;;11.40;99.90;;;12.69;100.00;98265.38;5073657;28;21027;-81
2021/09/04 02:20:53;;;;;;;7.63;4.93;;;11.40;99.90;;;12.66;100.00;98260.50;5065708;28;20472;-81
2021/09/04 02:23:22;;;;;;;7.07;5.10;;;11.40;99.90;;;12.66;100.00;98258.72;5063866;28;20886;-81
2021/09/04 02:25:50;;;;;;;5.67;4.53;;;11.40;99.90;;;12.66;100.00;98250.03;5066388;28;20869;-81
2021/09/04 02:28:19;;;;;;;10.87;5.30;;;11.40;99.90;;;12.66;100.00;98250.03;5059090;28;20465;-81
2021/09/04 02:30:47;;;;;;;7.60;4.80;;;11.40;99.90;;;12.69;100.00;98249.63;5061695;28;20889;-81
2021/09/04 02:33:17;;;;;;;10.50;5.67;;;11.40;99.90;;;12.66;100.00;98255.28;5068400;28;20444;-81
2021/09/04 02:35:46;;;;;;;9.10;5.17;;;11.30;99.90;;;12.66;100.00;98248.22;5056430;28;20526;-81
2021/09/04 02:38:14;;;;;;;8.57;5.13;;;11.40;99.90;;;12.64;100.00;98239.72;5064935;28;20514;-81
2021/09/04 02:40:43;;;;;;;9.90;4.77;;;11.40;99.90;;;12.57;100.00;98241.50;5068926;28;20993;-81
2021/09/04 02:43:11;;;;;;;9.33;5.20;;;11.30;99.90;;;12.53;100.00;98240.25;5069730;28;21058;-81
2021/09/04 02:45:40;;;;;;;9.10;4.37;;;11.30;99.90;;;12.39;100.00;98247.25;5065745;28;20495;-81
2021/09/04 02:48:08;;;;;;;5.60;4.50;;;11.10;99.90;;;12.42;100.00;98249.50;5063834;28;20869;-83
2021/09/04 02:50:38;;;;;;;8.77;4.77;;;11.10;99.90;;;12.30;100.00;98253.66;5055357;28;20473;-81
2021/09/04 02:53:07;;;;;;;6.50;4.90;;;11.00;99.90;;;12.43;100.00;98245.88;5063275;28;20493;-81
2021/09/04 02:55:35;;;;;;;15.93;5.70;;;11.20;99.90;;;12.44;100.00;98252.75;5060428;28;20480;-81
2021/09/04 02:58:04;;;;;;;8.30;5.10;;;11.30;99.90;;;12.45;100.00;98254.38;5070200;28;21105;-81
2021/09/04 03:00:32;;;;;;;6.03;4.97;;;11.30;99.90;;;12.42;100.00;98244.25;5066632;28;20452;-81
2021/09/04 03:03:01;;;;;;;8.37;5.20;;;11.20;99.90;;;12.38;100.00;98243.03;5065983;28;20559;-81
2021/09/04 03:05:31;;;;;;;5.07;3.83;;;11.10;99.90;;;12.41;100.00;98249.69;5070026;28;20460;-81
2021/09/04 03:08:00;;;;;;;8.13;5.00;;;11.20;99.90;;;12.44;100.00;98252.75;5070143;28;20448;-81
2021/09/04 03:10:29;;;;;;;10.47;4.90;;;11.30;99.90;;;12.37;100.00;98251.88;5060274;28;20895;-81
2021/09/04 03:12:58;;;;;;;8.00;5.30;;;11.20;99.90;;;12.26;100.00;98249.78;5065881;28;20500;-81
2021/09/04 03:15:27;;;;;;;8.67;5.30;;;11.00;99.90;;;12.24;100.00;98257.06;5067052;28;20523;-81
2021/09/04 03:17:55;;;;;;;8.53;5.67;;;11.00;99.90;;;12.14;100.00;98253.97;5061255;28;20523;-81
2021/09/04 03:20:24;;;;;;;8.20;5.23;;;10.80;99.90;;;12.09;100.00;98248.47;5063984;28;20460;-81
2021/09/04 03:22:52;;;;;;;7.97;5.03;;;10.80;99.90;;;12.14;100.00;98246.09;5060380;28;20530;-81
2021/09/04 03:25:22;;;;;;;6.97;5.40;;;10.90;99.90;;;12.16;100.00;98251.94;5057603;28;20874;-81
2021/09/04 03:27:51;;;;;;;11.33;5.40;;;10.90;99.90;;;12.18;100.00;98244.72;5066003;28;20456;-81
2021/09/04 03:30:19;;;;;;;7.03;5.10;;;10.90;99.90;;;12.11;100.00;98239.41;5054565;28;20492;-81
2021/09/04 03:32:48;;;;;;;11.33;5.50;;;10.90;99.90;;;12.14;100.00;98245.28;5068203;28;20532;-81
2021/09/04 03:35:16;;;;;;;7.80;5.17;;;11.00;99.90;;;12.08;100.00;98241.59;5066071;28;20944;-81
2021/09/04 03:37:45;;;;;;;10.87;5.30;;;10.80;99.90;;;12.13;100.00;98239.22;5068361;28;20870;-81
2021/09/04 03:40:13;;;;;;;7.80;5.13;;;10.90;99.90;;;12.06;100.00;98238.38;5062544;28;20488;-82
2021/09/04 03:42:43;;;;;;;7.40;5.30;;;10.80;99.90;;;12.07;100.00;98242.63;5066886;28;20494;-81
2021/09/04 03:45:12;;;;;;;9.90;4.30;;;10.80;99.90;;;12.02;100.00;98245.00;5063714;28;20880;-81
2021/09/04 03:47:41;;;;;;;9.30;4.97;;;10.80;99.90;;;11.89;100.00;98247.53;5065105;28;20495;-81
2021/09/04 03:50:11;;;;;;;8.07;4.83;;;10.60;99.90;;;11.86;100.00;98246.09;5065497;28;20465;-80
2021/09/04 03:52:40;;;;;;;6.97;5.00;;;10.60;99.90;;;11.79;100.00;98241.81;5057004;28;20543;-81
2021/09/04 03:55:10;;;;;;;6.80;5.33;;;10.50;99.90;;;11.87;100.00;98242.47;5059417;28;20493;-81
2021/09/04 03:57:38;;;;;;;8.43;4.50;;;10.70;99.90;;;11.85;100.00;98241.03;5060639;28;20449;-81
2021/09/04 04:00:10;;;;;;;7.50;5.30;;;10.70;99.90;;;11.85;100.00;98239.25;5068387;28;20463;-82
2021/09/04 04:02:39;;;;;;;9.10;5.07;;;10.70;99.90;;;11.79;100.00;98242.63;5062829;28;20869;-81
2021/09/04 04:05:09;;;;;;;8.47;4.90;;;10.60;99.90;;;11.77;100.00;98238.56;5069319;28;20441;-81
2021/09/04 04:07:38;;;;;;;6.40;4.70;;;10.50;99.90;;;11.83;100.00;98250.91;5078517;28;20868;-82
2021/09/04 04:10:09;;;;;;;9.73;4.43;;;10.60;99.90;;;11.83;100.00;98248.28;5076441;28;20449;-81
2021/09/04 04:12:37;;;;;;;8.70;5.43;;;10.60;99.90;;;11.88;100.00;98246.72;5062443;28;20485;-81
2021/09/04 04:15:09;;;;;;;7.83;5.40;;;10.70;99.90;;;11.91;100.00;98248.94;5064166;28;20444;-81
2021/09/04 04:17:40;;;;;;;5.77;4.40;;;10.80;99.90;;;11.93;100.00;98243.53;5060726;28;20465;-86
2021/09/04 04:20:11;;;;;;;7.77;4.70;;;10.80;99.90;;;11.79;100.00;98247.88;5068957;28;20448;-80
2021/09/04 04:22:39;;;;;;;7.33;4.97;;;10.60;99.90;;;11.79;100.00;98242.63;5055441;28;20461;-81
2021/09/04 04:25:09;;;;;;;6.70;4.60;;;10.60;99.90;;;11.76;100.00;98250.88;5061534;28;20541;-81
2021/09/04 04:27:38;;;;;;;10.77;5.00;;;10.50;99.90;;;11.76;100.00;98257.91;5059771;28;20449;-81
2021/09/04 04:30:10;;;;;;;20.23;4.60;;;10.50;99.90;;;11.71;100.00;98248.00;5068957;28;20522;-82
2021/09/04 04:32:39;;;;;;;8.83;5.33;;;10.40;99.90;;;11.75;100.00;98248.41;5069656;28;20557;-81
2021/09/04 04:35:11;;;;;;;11.00;5.33;;;10.50;99.90;;;11.71;100.00;98247.19;5070404;28;20448;-81
2021/09/04 04:37:39;;;;;;;7.30;4.90;;;10.50;99.90;;;11.63;100.00;98247.28;5074857;28;20451;-81
2021/09/04 04:40:10;;;;;;;7.20;4.93;;;10.40;99.90;;;11.66;100.00;98239.88;5070372;28;20562;-83
2021/09/04 04:42:38;;;;;;;8.80;5.10;;;10.40;99.90;;;11.72;100.00;98249.63;5073311;28;20460;-83
2021/09/04 04:45:09;;;;;;;7.03;5.30;;;10.50;99.90;;;11.71;100.00;98248.00;5064862;28;20440;-82
2021/09/04 04:47:38;;;;;;;5.63;4.27;;;10.70;99.90;;;11.71;100.00;98247.19;5065727;28;20472;-83
2021/09/04 04:50:08;;;;;;;8.00;4.97;;;10.60;99.90;;;11.65;100.00;98246.09;5074131;28;20496;-82
2021/09/04 04:52:36;;;;;;;7.30;5.07;;;10.50;99.90;;;11.60;100.00;98249.28;5071055;28;20492;-83
2021/09/04 04:55:06;;;;;;;7.07;4.63;;;10.40;99.90;;;11.58;100.00;98246.03;5064736;28;21061;-83
2021/09/04 04:57:36;;;;;;;10.20;4.80;;;10.40;99.90;;;11.60;100.00;98249.28;5074028;28;20456;-83
2021/09/04 05:00:08;;;;;;;6.83;4.93;;;10.40;99.90;;;11.63;100.00;98251.50;5072817;28;20456;-83
2021/09/04 05:02:38;;;;;;;5.70;4.80;;;10.50;99.90;;;11.57;100.00;98254.06;5070844;28;20510;-83
2021/09/04 05:05:09;;;;;;;10.33;4.63;;;10.40;99.90;;;11.56;100.00;98250.66;5073935;28;20925;-82
2021/09/04 05:07:38;;;;;;;6.63;4.73;;;10.50;99.90;;;11.51;100.00;98250.41;5072161;28;20817;-82
2021/09/04 05:10:07;;;;;;;7.00;4.57;;;10.40;99.90;;;11.47;100.00;98254.41;5067239;28;20487;-82
2021/09/04 05:12:36;;;;;;;8.47;4.83;;;10.40;99.90;;;11.50;100.00;98254.03;5068716;28;20487;-82
2021/09/04 05:15:06;;;;;;;6.23;4.60;;;10.50;99.90;;;11.53;100.00;98253.66;5070032;28;20521;-83
2021/09/04 05:17:37;;;;;;;6.97;5.13;;;10.50;99.90;;;11.57;100.00;98262.75;5073370;28;20440;-83
2021/09/04 05:20:10;;;;;;;9.40;5.10;;;10.50;99.90;;;11.52;100.00;98265.09;5073833;28;20448;-82
2021/09/04 05:22:42;;;;;;;8.10;5.40;;;10.40;99.90;;;11.40;100.00;98261.38;5068217;28;20514;-82
2021/09/04 05:25:11;;;;;;;12.20;4.83;;;10.20;99.90;;;11.42;100.00;98266.44;5073139;28;20813;-82
2021/09/04 05:27:40;;;;;;;7.10;5.20;;;10.20;99.90;;;11.46;100.00;98259.81;5072460;28;20788;-83
2021/09/04 05:30:10;;;;;;;10.13;4.80;;;10.30;99.90;;;11.41;100.00;98259.59;5073535;28;20478;-82
2021/09/04 05:32:40;;;;;;;7.27;4.90;;;10.20;99.90;;;11.37;100.00;98259.16;5074282;28;20488;-83
2021/09/04 05:35:09;;;;;;;7.47;5.27;;;10.20;99.90;;;11.40;100.00;98258.75;5061070;28;20920;-82
2021/09/04 05:37:38;;;;;;;12.70;5.83;;;10.30;99.90;;;11.44;100.00;98253.97;5071060;28;20448;-82
2021/09/04 05:40:07;;;;;;;7.80;5.10;;;10.30;99.90;;;11.47;100.00;98259.63;5065909;28;20449;-82
2021/09/04 05:42:36;;;;;;;7.13;4.70;;;10.30;99.90;;;11.54;100.00;98255.28;5072372;28;20448;-82
2021/09/04 05:45:06;;;;;;;11.03;5.27;;;10.40;99.90;;;11.60;100.00;98259.75;5072938;28;20856;-83
2021/09/04 05:47:36;;;;;;;10.10;5.53;;;10.50;99.90;;;11.67;100.00;98257.19;5066218;28;21007;-83
2021/09/04 05:50:08;;;;;;;6.10;4.70;;;10.60;99.90;;;11.72;100.00;98261.91;5065780;28;20445;-82
2021/09/04 05:52:36;;;;;;;11.00;4.87;;;10.70;99.90;;;11.70;100.00;98262.03;5065921;28;20945;-83
2021/09/04 05:55:05;;;;;;;8.43;5.20;;;10.60;99.90;;;11.74;100.00;98270.38;5071025;28;20526;-83
2021/09/04 05:57:35;;;;;;;8.80;5.53;;;10.70;99.90;;;11.78;100.00;98263.75;5070606;28;20461;-83
2021/09/04 06:00:05;;;;;;;7.97;5.47;;;10.70;99.90;;;11.84;100.00;98265.63;5068358;28;20918;-82
2021/09/04 06:02:33;;;;;;;8.93;4.97;;;10.80;99.90;;;11.85;100.00;98267.25;5072196;28;20470;-83
2021/09/04 06:05:02;;;;;;;6.47;5.10;;;10.90;99.90;;;11.89;100.00;98271.13;5071528;28;20448;-83
2021/09/04 06:07:32;;;;;;;11.17;5.20;;;10.90;99.90;;;11.84;100.00;98270.84;5065417;28;20468;-83
2021/09/04 06:10:00;;;;;;;6.23;5.20;;;10.80;99.90;;;11.78;100.00;98261.97;5065051;28;20448;-82
2021/09/04 06:12:29;;;;;;;7.50;5.20;;;10.70;99.90;;;11.79;100.00;98262.78;5066871;28;20440;-82
2021/09/04 06:14:57;;;;;;;8.83;5.67;;;10.70;99.90;;;11.85;100.00;98262.00;5072089;28;20500;-83
2021/09/04 06:17:26;;;;;;;8.87;5.37;;;10.80;99.90;;;11.92;100.00;98268.09;5069949;28;20444;-83
2021/09/04 06:19:55;;;;;;;7.30;4.83;;;10.90;99.90;;;11.97;100.00;98260.50;5064198;28;20436;-83
2021/09/04 06:22:24;;;;;;;7.43;5.10;;;11.00;99.90;;;12.04;100.00;98262.16;5065225;28;20537;-83
2021/09/04 06:24:54;;;;;;;7.83;5.87;;;11.00;99.90;;;12.12;100.00;98263.81;5072095;28;20862;-83
2021/09/04 06:27:22;;;;;;;10.40;5.60;;;11.10;99.90;;;12.17;100.00;98266.69;5070452;28;20444;-83
2021/09/04 06:29:51;;;;;;;8.50;5.53;;;11.20;99.90;;;12.15;100.00;98258.19;5068129;28;20444;-83
2021/09/04 06:32:19;;;;;;;10.40;5.30;;;11.10;99.90;;;12.22;100.00;98256.41;5070749;28;20493;-83
2021/09/04 06:34:48;;;;;;;11.77;6.33;;;11.20;99.90;;;12.27;100.00;98251.44;5071400;28;20531;-83
2021/09/04 06:37:16;;;;;;;10.07;5.90;;;11.30;99.90;;;12.32;100.00;98256.88;5069921;28;20452;-82
2021/09/04 06:39:44;;;;;;;7.33;5.40;;;11.40;99.90;;;12.35;100.00;98251.28;5067837;28;20454;-83
2021/09/04 06:42:14;;;;;;;13.10;4.97;;;11.40;99.90;;;12.38;100.00;98253.50;5067152;28;20441;-83
2021/09/04 06:44:43;;;;;;;8.67;5.40;;;11.40;99.90;;;12.40;100.00;98248.06;5065008;28;20444;-83
2021/09/04 06:47:12;;;;;;;10.37;5.60;;;11.40;99.90;;;12.47;100.00;98252.34;5066940;28;20552;-82
2021/09/04 06:49:40;;;;;;;7.53;5.50;;;11.50;99.90;;;12.53;100.00;98253.38;5065527;28;20447;-83
2021/09/04 06:52:09;;;;;;;10.27;6.00;;;11.60;99.90;;;12.57;100.00;98252.78;5070241;28;20449;-83
2021/09/04 06:54:37;;;;;;;10.83;6.07;;;11.60;99.90;;;12.63;100.00;98249.38;5069414;28;20496;-82
2021/09/04 06:57:06;;;;;;;8.10;6.10;;;11.70;99.90;;;12.70;100.00;98248.63;5069835;28;20497;-83
2021/09/04 06:59:35;;;;;;;7.63;5.90;;;11.80;99.90;;;12.75;100.00;98249.66;5070556;28;20937;-83
2021/09/04 07:02:04;;;;;;;14.27;7.07;;;11.70;99.90;;;12.81;100.00;98248.03;5068540;28;20452;-83
2021/09/04 07:04:33;;;;;;;7.77;5.50;;;11.80;99.90;;;12.88;100.00;98249.69;5069811;28;20798;-83
2021/09/04 07:07:04;;;;;;;6.83;5.43;;;11.90;99.90;;;12.93;100.00;98257.00;5069952;28;20440;-83
2021/09/04 07:09:34;;;;;;;7.60;5.10;;;12.00;99.90;;;12.97;100.00;98252.97;5063765;28;20996;-83
2021/09/04 07:12:03;;;;;;;9.70;6.27;;;12.00;99.90;;;13.03;100.00;98246.94;5065953;28;20460;-82
2021/09/04 07:14:32;;;;;;;21.30;5.53;;;12.10;99.90;;;13.10;100.00;98251.22;5070802;28;20586;-83
2021/09/04 07:17:01;;;;;;;8.03;5.30;;;12.20;99.90;;;13.16;100.00;98251.44;5068793;28;20452;-83
2021/09/04 07:19:30;;;;;;;15.20;5.77;;;12.20;99.90;;;13.22;100.00;98248.03;5066601;28;20501;-83
2021/09/04 07:21:59;;;;;;;8.13;5.70;;;12.30;99.90;;;13.28;100.00;98244.59;5071010;28;20494;-83
2021/09/04 07:24:27;;;;;;;10.30;5.47;;;12.40;99.90;;;13.34;100.00;98247.25;5068863;28;20456;-83
2021/09/04 07:26:55;;;;;;;9.90;5.80;;;12.40;99.90;;;13.42;100.00;98256.75;5070835;28;20440;-83
2021/09/04 07:29:24;;;;;;;8.10;5.33;;;12.50;99.90;;;13.48;100.00;98246.25;5070466;28;20483;-83
2021/09/04 07:31:53;;;;;;;6.83;5.20;;;12.60;99.90;;;13.54;100.00;98250.69;5070683;28;20440;-83
2021/09/04 07:34:22;;;;;;;7.80;5.20;;;12.60;99.90;;;13.63;100.00;98253.16;5069132;28;20496;-83
2021/09/04 07:36:51;;;;;;;11.60;5.53;;;12.70;99.90;;;13.69;100.00;98254.97;5062975;28;20479;-82
2021/09/04 07:39:19;;;;;;;7.63;5.37;;;12.80;99.90;;;13.76;100.00;98247.88;5070096;28;20440;-83
2021/09/04 07:41:48;;;;;;;9.27;6.10;;;12.90;99.90;;;13.83;100.00;98251.31;5072140;28;20548;-82
2021/09/04 07:44:16;;;;;;;11.60;5.30;;;13.00;99.90;;;13.90;100.00;98254.75;5071064;28;20453;-83
2021/09/04 07:46:45;;;;;;;8.27;5.27;;;13.00;99.90;;;13.96;100.00;98253.94;5065522;28;20522;-83
2021/09/04 07:49:13;;;;;;;9.40;5.60;;;13.10;99.90;;;14.04;100.00;98251.13;5060519;28;20543;-83
2021/09/04 07:51:43;;;;;;;8.30;5.70;;;13.20;99.90;;;14.11;100.00;98251.91;5066648;28;20506;-83
2021/09/04 07:54:12;;;;;;;12.37;6.70;;;13.30;99.90;;;14.18;100.00;98250.09;5069715;28;20549;-83
2021/09/04 07:56:40;;;;;;;8.50;5.87;;;13.30;99.90;;;14.24;100.00;98244.00;5060215;28;20492;-83
2021/09/04 07:59:09;;;;;;;10.17;6.33;;;13.50;99.90;;;14.31;100.00;98252.69;5070046;28;20490;-83
2021/09/04 08:01:37;;;;;;;6.20;4.90;;;13.50;99.90;;;14.38;100.00;98252.72;5069908;28;20482;-83
2021/09/04 08:04:06;;;;;;;11.53;6.23;;;13.60;99.90;;;14.43;100.00;98250.28;5067461;28;20535;-83
2021/09/04 08:06:35;;;;;;;8.60;5.50;;;13.70;99.90;;;14.51;100.00;98253.47;5066391;28;20448;-83
2021/09/04 08:09:04;;;;;;;14.37;6.13;;;13.80;99.90;;;14.57;100.00;98250.03;5068421;28;20487;-83
2021/09/04 08:11:33;;;;;;;10.27;5.13;;;13.80;99.90;;;14.66;100.00;98249.78;5060198;28;20572;-83
2021/09/04 08:14:02;;;;;;;7.70;5.60;;;13.90;99.90;;;14.71;100.00;98250.00;5070587;28;20452;-83
2021/09/04 08:16:30;;;;;;;13.80;5.70;;;14.00;99.90;;;14.80;100.00;98246.09;5072348;28;20494;-83
2021/09/04 08:18:59;;;;;;;10.90;6.00;;;14.10;99.90;;;14.85;100.00;98251.56;5074342;28;20483;-83
2021/09/04 08:21:28;;;;;;;8.00;5.50;;;14.10;99.90;;;14.90;100.00;98251.72;5070879;28;20455;-82
2021/09/04 08:23:56;;;;;;;12.27;6.40;;;14.20;99.90;;;14.97;100.00;98252.50;5074236;28;20460;-83
2021/09/04 08:26:26;;;;;;;8.60;5.77;;;14.30;99.90;;;15.04;100.00;98250.66;5065044;28;20502;-83
2021/09/04 08:28:56;;;;;;;8.80;5.30;;;14.30;99.90;;;15.14;100.00;98243.09;5074116;28;20506;-83
2021/09/04 08:31:25;;;;;;;9.37;4.80;;;14.50;99.90;;;15.22;100.00;98250.78;5073152;28;20890;-84
2021/09/04 08:33:53;;;;;;;7.73;5.33;;;14.50;99.90;;;15.30;100.00;98247.91;5073242;28;20560;-83
2021/09/04 08:36:22;;;;;;;8.47;4.87;;;14.60;99.90;;;15.39;100.00;98246.59;5069147;28;20564;-83
2021/09/04 08:38:50;;;;;;;9.37;5.47;;;14.70;99.90;;;15.44;100.00;98244.16;5073036;28;20861;-83
2021/09/04 08:41:19;;;;;;;12.20;4.70;;;14.80;99.90;;;15.57;100.00;98252.00;5073745;28;20452;-83
2021/09/04 08:43:49;;;;;;;7.33;4.77;;;15.00;99.90;;;15.67;100.00;98258.63;5070554;28;20948;-83
2021/09/04 08:46:18;;;;;;;7.93;5.87;;;15.00;99.90;;;15.74;100.00;98252.28;5073191;28;20480;-83
2021/09/04 08:48:50;;;;;;;7.37;5.47;;;15.10;99.90;;;15.81;100.00;98255.66;5060805;28;20448;-83
2021/09/04 08:51:19;;;;;;;13.83;5.50;;;15.20;99.90;;;15.92;100.00;98247.06;5069475;28;20437;-83
2021/09/04 08:53:47;;;;;;;7.20;5.20;;;15.30;99.90;;;16.00;100.00;98251.28;5072356;28;20517;-83
2021/09/04 08:56:16;;;;;;;9.40;5.30;;;15.40;99.90;;;16.09;100.00;98260.50;5065179;28;20991;-83
2021/09/04 08:58:44;;;;;;;8.47;5.73;;;15.50;99.90;;;16.19;100.00;98260.81;5071677;28;20497;-83
2021/09/04 09:01:21;;;;;;;7.47;5.47;;;15.60;99.90;;;16.31;100.00;98263.56;5065190;28;20448;-83
2021/09/04 09:03:51;;;;;;;8.37;5.37;;;15.80;99.90;;;16.38;100.00;98257.16;5068927;28;20455;-83
2021/09/04 09:06:34;;;;;;;11.23;5.17;;;15.80;99.90;;;16.46;100.00;98259.53;5071650;28;20475;-83
2021/09/04 09:09:16;;;;;;;10.33;5.20;;;15.90;99.90;;;16.53;100.00;98246.25;5064294;28;20449;-83
2021/09/04 09:11:46;;;;;;;7.60;5.00;;;16.00;99.90;;;16.62;100.00;98238.91;5064985;28;20460;-83
2021/09/04 09:14:15;;;;;;;9.53;4.87;;;16.10;99.90;;;16.69;100.00;98244.91;5072351;28;20864;-83
2021/09/04 09:16:54;;;;;;;6.40;4.73;;;16.20;99.90;;;16.80;100.00;98238.91;5069729;28;20895;-83
2021/09/04 09:19:27;;;;;;;11.30;5.00;;;16.30;99.90;;;16.86;100.00;98243.28;5068844;28;20445;-83
2021/09/04 09:21:57;;;;;;;8.17;5.47;;;16.30;99.90;;;16.93;100.00;98239.53;5065302;28;20452;-83
2021/09/04 09:24:28;;;;;;;8.40;5.57;;;16.40;99.90;;;17.02;100.00;98237.38;5071287;28;20790;-83
2021/09/04 09:27:01;;;;;;;7.60;5.43;;;16.50;99.90;;;17.09;100.00;98238.91;5072053;28;20490;-83
2021/09/04 09:29:32;;;;;;;8.93;5.00;;;16.60;99.90;;;17.17;100.00;98234.34;5072088;28;20518;-83
2021/09/04 09:32:06;;;;;;;8.03;5.00;;;16.70;99.90;;;17.25;100.00;98234.81;5072873;28;20527;-84
2021/09/04 09:34:37;;;;;;;9.07;5.00;;;16.80;99.90;;;17.34;100.00;98238.78;5063364;28;20448;-83
2021/09/04 09:37:07;;;;;;;6.77;4.87;;;16.90;99.90;;;17.41;100.00;98241.31;5067247;28;20726;-83
2021/09/04 09:39:38;;;;;;;6.13;4.53;;;16.90;99.90;;;17.49;100.00;98233.06;5064155;28;20444;-83
2021/09/04 09:42:09;;;;;;;9.87;4.97;;;17.00;99.90;;;17.56;100.00;98224.00;5071826;28;20452;-83
2021/09/04 09:44:40;;;;;;;11.27;4.53;;;17.10;99.90;;;17.66;100.00;98227.97;5069530;28;20586;-83
2021/09/04 09:47:12;;;;;;;11.43;4.47;;;17.20;99.90;;;17.74;100.00;98231.06;5065715;28;20488;-83
2021/09/04 09:49:44;;;;;;;6.53;4.70;;;17.30;99.90;;;17.85;100.00;98232.13;5072214;28;20445;-83
2021/09/04 09:52:15;;;;;;;6.60;4.50;;;17.40;99.90;;;17.90;100.00;98232.25;5065609;28;20941;-83
2021/09/04 09:54:45;;;;;;;7.50;4.60;;;17.40;99.90;;;17.97;100.00;98230.28;5064042;28;20445;-84
2021/09/04 09:57:15;;;;;;;7.07;4.67;;;17.50;99.90;;;18.01;100.00;98226.94;5068831;28;20476;-84
2021/09/04 09:59:46;;;;;;;6.10;4.63;;;17.50;99.90;;;18.07;100.00;98222.59;5065539;28;20477;-83
2021/09/04 10:02:17;;;;;;;8.97;5.60;;;17.50;99.90;;;18.14;100.00;98223.28;5067158;28;20579;-84
2021/09/04 10:04:49;;;;;;;7.63;5.00;;;17.60;99.90;;;18.21;100.00;98226.63;5058964;28;20536;-84
2021/09/04 10:07:19;;;;;;;6.03;4.13;;;17.70;99.90;;;18.25;100.00;98219.81;5067502;28;20967;-84
2021/09/04 10:09:48;;;;;;;7.30;4.90;;;17.70;99.90;;;18.34;100.00;98221.06;5065337;28;20519;-84
2021/09/04 10:12:18;;;;;;;5.17;4.67;;;17.80;99.90;;;18.39;100.00;98215.91;5065514;28;20529;-84
2021/09/04 10:14:50;;;;;;;5.33;4.63;;;17.80;99.90;;;18.43;100.00;98219.66;5072524;28;20483;-83
2021/09/04 10:17:22;;;;;;;8.13;4.80;;;17.90;99.90;;;18.49;100.00;98217.94;5072720;28;20460;-84
2021/09/04 10:19:51;;;;;;;5.70;4.23;;;18.00;99.90;;;18.55;100.00;98217.03;5071877;28;20982;-84